createdAt,value
2019-05-22T00:00:29.053Z,12.30
2019-05-22T00:02:59.295Z,12.30
2019-05-22T00:05:31.984Z,12.30
2019-05-22T00:08:02.423Z,12.30
2019-05-22T00:10:32.969Z,12.30
2019-05-22T00:13:03.397Z,12.30
2019-05-22T00:15:33.456Z,12.30
2019-05-22T00:18:02.942Z,12.30
2019-05-22T00:20:31.517Z,12.30
2019-05-22T00:23:04.082Z,12.40
2019-05-22T00:25:35.032Z,12.40
2019-05-22T00:28:04.602Z,12.40
2019-05-22T00:30:34.741Z,12.40
2019-05-22T00:33:05.869Z,12.40
2019-05-22T00:35:36.827Z,12.40
2019-05-22T00:38:07.152Z,12.40
2019-05-22T00:40:37.934Z,12.40
2019-05-22T00:43:13.742Z,12.30
2019-05-22T00:45:38.149Z,12.30
2019-05-22T00:48:07.814Z,12.30
2019-05-22T00:50:53.311Z,12.40
2019-05-22T00:53:42.513Z,12.40
2019-05-22T00:56:17.073Z,12.40
2019-05-22T00:59:01.273Z,12.40
2019-05-22T01:01:32.318Z,12.40
2019-05-22T01:04:02.442Z,12.40
2019-05-22T01:06:32.509Z,12.30
2019-05-22T01:09:04.410Z,12.30
2019-05-22T01:11:33.895Z,12.30
2019-05-22T01:14:04.315Z,12.30
2019-05-22T01:16:33.885Z,12.30
2019-05-22T01:19:03.035Z,12.30
2019-05-22T01:21:33.243Z,12.30
2019-05-22T01:24:03.863Z,12.30
2019-05-22T01:26:34.123Z,12.30
2019-05-22T01:29:02.681Z,12.30
2019-05-22T01:31:32.839Z,12.30
2019-05-22T01:34:05.619Z,12.30
2019-05-22T01:36:35.674Z,12.30
2019-05-22T01:39:17.443Z,12.40
2019-05-22T01:41:50.359Z,12.40
2019-05-22T01:44:20.420Z,12.30
2019-05-22T01:46:50.684Z,12.30
2019-05-22T01:49:19.104Z,12.40
2019-05-22T01:51:48.007Z,12.30
2019-05-22T01:54:18.112Z,12.30
2019-05-22T01:56:46.704Z,12.30
2019-05-22T01:59:15.199Z,12.30
2019-05-22T02:01:45.296Z,12.30
2019-05-22T02:04:15.082Z,12.20
2019-05-22T02:06:44.664Z,12.20
2019-05-22T02:09:23.881Z,12.20
2019-05-22T02:12:02.718Z,12.20
2019-05-22T02:14:32.370Z,12.30
2019-05-22T02:17:01.484Z,12.30
2019-05-22T02:19:30.388Z,12.30
2019-05-22T02:21:59.705Z,12.30
2019-05-22T02:24:28.658Z,12.20
2019-05-22T02:26:58.528Z,12.20
2019-05-22T02:29:26.948Z,12.20
2019-05-22T02:31:58.333Z,12.20
2019-05-22T02:34:28.257Z,12.10
2019-05-22T02:36:57.761Z,12.10
2019-05-22T02:39:32.485Z,12.10
2019-05-22T02:42:05.275Z,12.10
2019-05-22T02:44:35.410Z,12.00
2019-05-22T02:47:18.370Z,12.10
2019-05-22T02:49:35.801Z,12.10
2019-05-22T02:52:06.387Z,12.10
2019-05-22T02:54:35.889Z,12.10
2019-05-22T02:57:06.720Z,12.10
2019-05-22T02:59:35.793Z,12.10
2019-05-22T03:02:06.859Z,12.10
2019-05-22T03:04:56.185Z,12.10
2019-05-22T03:07:25.642Z,12.10
2019-05-22T03:09:55.017Z,12.00
2019-05-22T03:12:24.296Z,11.90
2019-05-22T03:14:52.790Z,11.90
2019-05-22T03:17:27.790Z,11.90
2019-05-22T03:19:57.783Z,11.90
2019-05-22T03:22:33.501Z,11.90
2019-05-22T03:25:05.201Z,11.90
2019-05-22T03:27:47.882Z,12.00
2019-05-22T03:30:32.615Z,12.00
2019-05-22T03:33:02.430Z,11.90
2019-05-22T03:35:35.008Z,12.00
2019-05-22T03:38:04.842Z,12.00
2019-05-22T03:40:37.560Z,12.00
2019-05-22T03:43:24.630Z,12.00
2019-05-22T03:45:56.098Z,12.00
2019-05-22T03:48:25.100Z,12.00
2019-05-22T03:50:59.748Z,12.00
2019-05-22T03:53:28.247Z,12.00
2019-05-22T03:55:57.696Z,12.00
2019-05-22T03:58:26.277Z,12.00
2019-05-22T04:00:56.542Z,12.00
2019-05-22T04:03:26.274Z,12.10
2019-05-22T04:05:55.949Z,12.00
2019-05-22T04:08:26.749Z,12.00
2019-05-22T04:11:02.008Z,12.00
2019-05-22T04:13:31.970Z,12.00
2019-05-22T04:16:03.130Z,12.00
2019-05-22T04:18:32.658Z,12.10
2019-05-22T04:21:03.303Z,12.10
2019-05-22T04:23:32.386Z,12.10
2019-05-22T04:26:02.005Z,12.10
2019-05-22T04:28:31.132Z,12.00
2019-05-22T04:31:00.193Z,12.00
2019-05-22T04:33:30.619Z,12.00
2019-05-22T04:36:00.656Z,12.10
2019-05-22T04:38:29.675Z,12.10
2019-05-22T04:40:59.743Z,12.10
2019-05-22T04:43:32.107Z,12.20
2019-05-22T04:46:00.724Z,12.20
2019-05-22T04:48:31.476Z,12.20
2019-05-22T04:51:03.820Z,12.20
2019-05-22T04:53:32.620Z,12.10
2019-05-22T04:56:01.298Z,12.10
2019-05-22T04:58:30.104Z,12.20
2019-05-22T05:00:58.982Z,12.20
2019-05-22T05:03:28.525Z,12.20
2019-05-22T05:05:57.314Z,12.30
2019-05-22T05:08:26.084Z,12.30
2019-05-22T05:10:56.065Z,12.30
2019-05-22T05:13:26.424Z,12.30
2019-05-22T05:15:54.926Z,12.30
2019-05-22T05:18:23.409Z,12.30
2019-05-22T05:20:52.112Z,12.20
2019-05-22T05:23:20.586Z,12.30
2019-05-22T05:25:49.757Z,12.30
2019-05-22T05:28:19.333Z,12.40
2019-05-22T05:30:48.117Z,12.40
2019-05-22T05:33:17.324Z,12.40
2019-05-22T05:35:46.032Z,12.50
2019-05-22T05:38:15.739Z,12.50
2019-05-22T05:40:45.157Z,12.50
2019-05-22T05:43:15.647Z,12.60
2019-05-22T05:45:46.574Z,12.50
2019-05-22T05:48:22.476Z,12.50
2019-05-22T05:51:06.220Z,12.60
2019-05-22T05:53:56.590Z,12.60
2019-05-22T05:56:36.983Z,12.60
2019-05-22T05:59:07.442Z,12.50
2019-05-22T06:01:39.454Z,12.60
2019-05-22T06:04:08.293Z,12.70
2019-05-22T06:06:40.247Z,12.60
2019-05-22T06:09:10.625Z,12.60
2019-05-22T06:11:46.129Z,12.60
2019-05-22T06:14:23.727Z,12.70
2019-05-22T06:17:04.868Z,12.70
2019-05-22T06:19:33.381Z,12.70
2019-05-22T06:22:01.865Z,12.70
2019-05-22T06:24:36.810Z,12.80
2019-05-22T06:27:11.665Z,12.80
2019-05-22T06:29:56.843Z,12.90
2019-05-22T06:33:01.611Z,13.00
2019-05-22T06:35:36.170Z,13.10
2019-05-22T06:38:27.289Z,13.20
2019-05-22T06:40:55.797Z,13.20
2019-05-22T06:43:28.930Z,13.40
2019-05-22T06:45:57.810Z,13.50
2019-05-22T06:48:26.723Z,13.50
2019-05-22T06:50:56.369Z,13.50
2019-05-22T06:53:24.797Z,13.60
2019-05-22T06:55:53.210Z,13.70
2019-05-22T06:58:21.706Z,13.80
2019-05-22T07:00:50.782Z,14.00
2019-05-22T07:03:19.431Z,14.10
2019-05-22T07:05:49.007Z,14.10
2019-05-22T07:08:17.569Z,14.10
2019-05-22T07:10:46.544Z,14.10
2019-05-22T07:13:16.912Z,14.10
2019-05-22T07:15:46.256Z,14.20
2019-05-22T07:18:16.350Z,14.40
2019-05-22T07:20:46.595Z,14.40
2019-05-22T07:23:17.799Z,14.60
2019-05-22T07:25:47.447Z,14.70
2019-05-22T07:28:18.084Z,14.80
2019-05-22T07:30:48.768Z,14.90
2019-05-22T07:33:18.560Z,14.90
2019-05-22T07:36:07.940Z,15.00
2019-05-22T07:38:19.395Z,15.10
2019-05-22T07:40:50.341Z,15.10
2019-05-22T07:43:19.476Z,15.10
2019-05-22T07:45:48.460Z,15.10
2019-05-22T07:48:18.400Z,15.20
2019-05-22T07:50:49.971Z,15.40
2019-05-22T07:53:18.384Z,15.30
2019-05-22T07:55:49.048Z,15.30
2019-05-22T07:58:18.461Z,15.50
2019-05-22T08:00:50.921Z,15.50
2019-05-22T08:03:21.535Z,15.30
2019-05-22T08:05:55.000Z,15.10
2019-05-22T08:08:25.712Z,15.10
2019-05-22T08:10:55.969Z,15.10
2019-05-22T08:13:26.644Z,15.40
2019-05-22T08:15:55.444Z,15.60
2019-05-22T08:18:25.877Z,15.60
2019-05-22T08:20:54.313Z,15.70
2019-05-22T08:23:24.081Z,15.60
2019-05-22T08:25:52.693Z,15.50
2019-05-22T08:28:22.257Z,15.50
2019-05-22T08:30:51.337Z,15.70
2019-05-22T08:33:21.359Z,15.80
2019-05-22T08:35:50.303Z,15.90
2019-05-22T08:38:21.213Z,15.70
2019-05-22T08:40:51.377Z,15.50
2019-05-22T08:43:20.341Z,15.50
2019-05-22T08:45:49.454Z,15.40
2019-05-22T08:48:19.622Z,15.40
2019-05-22T08:50:48.245Z,15.40
2019-05-22T08:53:18.385Z,15.50
2019-05-22T08:55:47.649Z,15.30
2019-05-22T08:58:16.357Z,15.20
2019-05-22T09:00:47.017Z,15.30
2019-05-22T09:03:16.390Z,15.60
2019-05-22T09:05:45.545Z,15.80
2019-05-22T09:08:14.393Z,15.80
2019-05-22T09:10:42.871Z,15.80
2019-05-22T09:13:11.306Z,15.70
2019-05-22T09:15:40.670Z,15.90
2019-05-22T09:18:09.238Z,16.20
2019-05-22T09:20:48.686Z,16.30
2019-05-22T09:23:09.670Z,16.10
2019-05-22T09:25:38.519Z,16.10
2019-05-22T09:28:07.229Z,16.20
2019-05-22T09:30:36.583Z,16.20
2019-05-22T09:33:05.612Z,16.30
2019-05-22T09:35:34.664Z,16.50
2019-05-22T09:38:03.141Z,16.50
2019-05-22T09:40:32.932Z,16.60
2019-05-22T09:43:02.299Z,16.70
2019-05-22T09:45:31.006Z,16.90
2019-05-22T09:47:59.787Z,17.10
2019-05-22T09:50:29.053Z,17.20
2019-05-22T09:52:58.514Z,17.20
2019-05-22T09:55:27.119Z,17.40
2019-05-22T09:57:55.732Z,17.50
2019-05-22T10:00:25.120Z,17.70
2019-05-22T10:02:54.455Z,17.60
2019-05-22T10:05:22.868Z,17.50
2019-05-22T10:08:00.398Z,17.30
2019-05-22T10:10:22.762Z,17.10
2019-05-22T10:12:51.489Z,17.10
2019-05-22T10:15:20.911Z,17.30
2019-05-22T10:17:50.232Z,17.30
2019-05-22T10:20:20.506Z,17.30
2019-05-22T10:22:49.504Z,17.40
2019-05-22T10:25:18.569Z,17.40
2019-05-22T10:27:48.806Z,17.60
2019-05-22T10:30:20.719Z,17.70
2019-05-22T10:32:49.970Z,17.90
2019-05-22T10:35:22.153Z,17.90
2019-05-22T10:37:50.814Z,17.80
2019-05-22T10:40:19.874Z,17.70
2019-05-22T10:42:48.573Z,17.70
2019-05-22T10:45:17.060Z,17.70
2019-05-22T10:47:45.848Z,17.60
2019-05-22T10:50:14.563Z,17.70
2019-05-22T10:52:43.512Z,17.80
2019-05-22T10:55:14.667Z,17.90
2019-05-22T10:57:44.368Z,18.00
2019-05-22T11:03:11.356Z,18.20
2019-05-22T11:05:40.636Z,18.30
2019-05-22T11:08:09.953Z,18.40
2019-05-22T11:10:38.386Z,18.50
2019-05-22T11:13:07.535Z,18.90
2019-05-22T11:15:36.042Z,19.10
2019-05-22T11:18:05.047Z,19.10
2019-05-22T11:20:34.099Z,19.10
2019-05-22T11:23:02.973Z,19.10
2019-05-22T11:25:31.827Z,19.10
2019-05-22T11:28:00.235Z,19.20
2019-05-22T11:30:29.298Z,19.30
2019-05-22T11:32:58.927Z,19.50
2019-05-22T11:35:28.970Z,19.50
2019-05-22T11:37:57.520Z,19.50
2019-05-22T11:40:27.003Z,19.60
2019-05-22T11:42:55.424Z,19.70
2019-05-22T11:45:24.995Z,19.90
2019-05-22T11:47:53.559Z,20.30
2019-05-22T11:50:22.267Z,20.40
2019-05-22T11:52:51.227Z,20.50
2019-05-22T11:55:20.871Z,20.50
2019-05-22T11:57:49.943Z,20.30
2019-05-22T12:00:21.288Z,20.10
2019-05-22T12:02:51.617Z,20.10
2019-05-22T12:05:20.750Z,20.10
2019-05-22T12:07:50.149Z,20.00
2019-05-22T12:10:21.993Z,19.80
2019-05-22T12:12:52.841Z,20.00
2019-05-22T12:15:25.006Z,20.10
2019-05-22T12:17:53.515Z,20.00
2019-05-22T12:20:23.442Z,20.00
2019-05-22T12:22:51.937Z,20.10
2019-05-22T12:25:40.650Z,20.10
2019-05-22T12:28:09.810Z,20.10
2019-05-22T12:30:38.980Z,20.20
2019-05-22T12:33:13.675Z,20.30
2019-05-22T12:35:41.126Z,20.30
2019-05-22T12:38:10.662Z,20.10
2019-05-22T12:40:39.142Z,20.20
2019-05-22T12:43:07.590Z,20.30
2019-05-22T12:45:36.099Z,20.50
2019-05-22T12:48:05.815Z,20.60
2019-05-22T12:50:35.559Z,21.00
2019-05-22T12:53:06.751Z,21.40
2019-05-22T12:55:36.022Z,21.80
2019-05-22T12:58:05.943Z,22.10
2019-05-22T13:00:35.616Z,22.10
2019-05-22T13:03:06.588Z,22.10
2019-05-22T13:05:37.682Z,22.00
2019-05-22T13:08:07.029Z,21.90
2019-05-22T13:10:36.672Z,21.80
2019-05-22T13:13:05.238Z,21.90
2019-05-22T13:15:35.345Z,22.00
2019-05-22T13:18:05.376Z,22.50
2019-05-22T13:20:42.973Z,22.90
2019-05-22T13:23:09.174Z,22.90
2019-05-22T13:25:39.552Z,23.00
2019-05-22T13:28:29.232Z,23.00
2019-05-22T13:30:59.804Z,23.00
2019-05-22T13:33:29.386Z,22.90
2019-05-22T13:35:58.126Z,22.90
2019-05-22T13:38:27.484Z,22.70
2019-05-22T13:40:57.032Z,22.60
2019-05-22T13:43:27.525Z,22.40
2019-05-22T13:45:56.101Z,22.60
2019-05-22T13:48:25.223Z,22.60
2019-05-22T13:50:54.081Z,23.00
2019-05-22T13:53:22.884Z,24.20
2019-05-22T13:55:51.801Z,25.50
2019-05-22T13:58:21.718Z,28.40
2019-05-22T14:00:50.848Z,31.50
2019-05-22T14:03:20.727Z,34.20
2019-05-22T14:05:49.969Z,36.30
2019-05-22T14:08:18.590Z,38.30
2019-05-22T14:10:49.732Z,39.10
2019-05-22T14:13:17.476Z,40.10
2019-05-22T14:15:52.557Z,41.80
2019-05-22T14:18:16.247Z,43.10
2019-05-22T14:20:44.688Z,44.10
2019-05-22T14:23:13.859Z,44.50
2019-05-22T14:25:43.496Z,44.90
2019-05-22T14:28:13.899Z,44.20
2019-05-22T14:30:43.100Z,44.10
2019-05-22T14:33:12.529Z,44.70
2019-05-22T14:35:48.376Z,45.30
2019-05-22T14:38:13.347Z,45.80
2019-05-22T14:40:42.172Z,46.10
2019-05-22T14:43:11.192Z,45.80
2019-05-22T14:45:39.709Z,46.30
2019-05-22T14:48:09.088Z,46.80
2019-05-22T14:50:37.596Z,46.30
2019-05-22T14:53:06.189Z,43.50
2019-05-22T14:55:34.714Z,40.10
2019-05-22T14:58:05.310Z,38.20
2019-05-22T15:00:35.240Z,36.90
2019-05-22T15:03:04.813Z,39.10
2019-05-22T15:05:34.053Z,41.20
2019-05-22T15:08:03.451Z,42.20
2019-05-22T15:10:33.126Z,42.50
2019-05-22T15:13:02.425Z,42.70
2019-05-22T15:15:31.705Z,42.80
2019-05-22T15:18:00.219Z,41.80
2019-05-22T15:20:48.906Z,41.20
2019-05-22T15:23:17.318Z,40.30
2019-05-22T15:25:46.591Z,38.00
2019-05-22T15:28:15.077Z,37.40
2019-05-22T15:30:43.509Z,38.30
2019-05-22T15:33:12.581Z,37.30
2019-05-22T15:35:41.977Z,35.90
2019-05-22T15:38:12.345Z,34.90
2019-05-22T15:40:40.845Z,34.90
2019-05-22T15:43:11.413Z,34.70
2019-05-22T15:45:42.340Z,33.90
2019-05-22T15:48:15.530Z,32.60
2019-05-22T15:50:44.790Z,31.60
2019-05-22T15:53:15.306Z,31.00
2019-05-22T15:55:47.698Z,30.00
2019-05-22T15:58:17.939Z,29.00
2019-05-22T16:00:47.621Z,28.40
2019-05-22T16:03:21.081Z,28.20
2019-05-22T16:05:51.293Z,27.90
2019-05-22T16:08:19.797Z,27.40
2019-05-22T16:10:51.067Z,27.20
2019-05-22T16:13:22.710Z,27.30
2019-05-22T16:15:54.539Z,27.30
2019-05-22T16:18:29.517Z,27.30
2019-05-22T16:21:01.238Z,26.70
2019-05-22T16:23:38.339Z,26.20
2019-05-22T16:26:08.930Z,26.30
2019-05-22T16:28:39.613Z,25.90
2019-05-22T16:31:10.547Z,25.80
2019-05-22T16:33:41.620Z,25.90
2019-05-22T16:36:10.842Z,26.00
2019-05-22T16:38:39.951Z,25.90
2019-05-22T16:41:10.655Z,25.70
2019-05-22T16:43:49.085Z,25.20
2019-05-22T16:46:15.109Z,25.00
2019-05-22T16:48:44.550Z,25.00
2019-05-22T16:51:15.371Z,25.10
2019-05-22T16:53:46.862Z,25.10
2019-05-22T16:56:15.535Z,25.00
2019-05-22T16:58:44.127Z,24.90
2019-05-22T17:01:13.659Z,24.80
2019-05-22T17:03:42.446Z,24.60
2019-05-22T17:06:11.167Z,24.50
2019-05-22T17:08:39.861Z,24.40
2019-05-22T17:11:09.179Z,24.30
2019-05-22T17:13:38.669Z,24.20
2019-05-22T17:16:08.597Z,24.20
2019-05-22T17:18:46.939Z,24.30
2019-05-22T17:21:07.802Z,24.30
2019-05-22T17:23:36.346Z,24.50
2019-05-22T17:26:05.605Z,24.60
2019-05-22T17:28:34.351Z,24.30
2019-05-22T17:31:03.142Z,24.00
2019-05-22T17:33:33.677Z,23.90
2019-05-22T17:36:05.769Z,23.70
2019-05-22T17:38:33.870Z,23.40
2019-05-22T17:41:03.428Z,23.10
2019-05-22T17:43:33.786Z,22.80
2019-05-22T17:46:02.349Z,22.80
2019-05-22T17:48:32.962Z,22.90
2019-05-22T17:51:01.391Z,23.00
2019-05-22T17:53:29.930Z,23.50
2019-05-22T17:55:58.614Z,24.40
2019-05-22T17:58:29.985Z,25.00
2019-05-22T18:00:58.278Z,25.30
2019-05-22T18:03:26.818Z,24.90
2019-05-22T18:05:55.300Z,24.40
2019-05-22T18:08:23.966Z,23.90
2019-05-22T18:10:53.685Z,23.50
2019-05-22T18:13:22.107Z,23.20
2019-05-22T18:15:50.545Z,23.00
2019-05-22T18:18:19.523Z,22.80
2019-05-22T18:20:48.618Z,22.60
2019-05-22T18:23:17.056Z,22.50
2019-05-22T18:25:45.763Z,22.40
2019-05-22T18:28:15.587Z,22.30
2019-05-22T18:30:44.559Z,22.20
2019-05-22T18:33:13.954Z,21.70
2019-05-22T18:35:42.632Z,21.20
2019-05-22T18:38:11.202Z,20.80
2019-05-22T18:40:39.983Z,20.70
2019-05-22T18:43:08.689Z,20.80
2019-05-22T18:45:38.959Z,20.90
2019-05-22T18:48:07.675Z,20.90
2019-05-22T18:50:36.895Z,20.90
2019-05-22T18:53:06.467Z,20.80
2019-05-22T18:55:34.898Z,20.80
2019-05-22T18:58:03.341Z,20.70
2019-05-22T19:00:33.709Z,20.70
2019-05-22T19:03:02.621Z,20.60
2019-05-22T19:05:32.648Z,20.50
2019-05-22T19:08:01.162Z,20.50
2019-05-22T19:10:29.864Z,20.40
2019-05-22T19:12:58.646Z,20.30
2019-05-22T19:15:27.982Z,20.30
2019-05-22T19:17:56.743Z,20.30
2019-05-22T19:20:25.166Z,20.20
2019-05-22T19:23:00.458Z,20.10
2019-05-22T19:25:24.128Z,20.00
2019-05-22T19:27:52.542Z,19.70
2019-05-22T19:30:22.116Z,19.50
2019-05-22T19:32:50.847Z,19.40
2019-05-22T19:35:19.274Z,19.30
2019-05-22T19:37:47.698Z,19.30
2019-05-22T19:40:18.628Z,19.30
2019-05-22T19:42:49.314Z,19.30
2019-05-22T19:45:18.752Z,19.30
2019-05-22T19:47:52.924Z,19.30
2019-05-22T19:50:23.845Z,19.20
2019-05-22T19:52:55.111Z,19.10
2019-05-22T19:55:26.506Z,19.00
2019-05-22T19:57:55.310Z,19.00
2019-05-22T20:00:24.697Z,18.90
2019-05-22T20:02:54.911Z,18.80
2019-05-22T20:05:24.165Z,18.70
2019-05-22T20:07:53.209Z,18.60
2019-05-22T20:10:22.379Z,18.50
2019-05-22T20:12:50.819Z,18.50
2019-05-22T20:15:20.381Z,18.50
2019-05-22T20:17:48.933Z,18.40
2019-05-22T20:20:19.659Z,18.30
2019-05-22T20:22:49.599Z,18.30
2019-05-22T20:25:19.234Z,18.20
2019-05-22T20:27:48.038Z,18.20
2019-05-22T20:30:37.786Z,18.20
2019-05-22T20:33:06.592Z,18.10
2019-05-22T20:35:35.604Z,18.00
2019-05-22T20:38:04.337Z,17.90
2019-05-22T20:40:33.455Z,17.90
2019-05-22T20:43:01.965Z,17.90
2019-05-22T20:45:30.463Z,17.80
2019-05-22T20:48:08.050Z,17.80
2019-05-22T20:50:37.366Z,17.70
2019-05-22T20:53:07.528Z,17.70
2019-05-22T20:55:36.923Z,17.60
2019-05-22T20:58:06.384Z,17.60
2019-05-22T21:00:36.456Z,17.50
2019-05-22T21:03:08.180Z,17.40
2019-05-22T21:05:37.163Z,17.30
2019-05-22T21:08:08.860Z,17.20
2019-05-22T21:10:37.935Z,17.20
2019-05-22T21:13:08.135Z,17.10
2019-05-22T21:15:36.947Z,17.00
2019-05-22T21:18:05.503Z,17.00
2019-05-22T21:20:34.140Z,16.90
2019-05-22T21:23:03.602Z,16.90
2019-05-22T21:25:32.455Z,16.80
2019-05-22T21:28:01.452Z,16.80
2019-05-22T21:30:29.964Z,16.70
2019-05-22T21:32:58.556Z,16.70
2019-05-22T21:35:27.161Z,16.60
2019-05-22T21:37:56.488Z,16.50
2019-05-22T21:40:25.856Z,16.40
2019-05-22T21:42:55.606Z,16.40
2019-05-22T21:45:25.674Z,16.30
2019-05-22T21:47:54.646Z,16.30
2019-05-22T21:50:23.619Z,16.20
2019-05-22T21:52:53.639Z,16.10
2019-05-22T21:55:24.195Z,16.10
2019-05-22T21:57:53.347Z,16.10
2019-05-22T22:00:40.709Z,16.00
2019-05-22T22:03:12.600Z,15.90
2019-05-22T22:05:44.523Z,15.80
2019-05-22T22:08:13.040Z,15.80
2019-05-22T22:10:42.469Z,15.80
2019-05-22T22:13:12.523Z,15.70
2019-05-22T22:15:41.141Z,15.60
2019-05-22T22:18:12.425Z,15.60
2019-05-22T22:20:41.173Z,15.50
2019-05-22T22:23:12.497Z,15.50
2019-05-22T22:25:41.449Z,15.40
2019-05-22T22:28:12.797Z,15.30
2019-05-22T22:30:52.137Z,15.20
2019-05-22T22:33:25.204Z,15.20
2019-05-22T22:35:54.582Z,15.10
2019-05-22T22:38:25.482Z,15.00
2019-05-22T22:40:56.047Z,15.00
2019-05-22T22:43:27.942Z,14.90
2019-05-22T22:46:05.189Z,14.80
2019-05-22T22:48:40.690Z,14.70
2019-05-22T22:51:12.509Z,14.70
2019-05-22T22:53:43.892Z,14.60
2019-05-22T22:56:13.006Z,14.60
2019-05-22T22:58:42.386Z,14.50
2019-05-22T23:01:15.050Z,14.50
2019-05-22T23:03:47.143Z,14.50
2019-05-22T23:06:17.095Z,14.40
2019-05-22T23:08:47.727Z,14.30
2019-05-22T23:11:17.068Z,14.30
2019-05-22T23:13:45.973Z,14.20
2019-05-22T23:16:15.930Z,14.20
2019-05-22T23:19:06.695Z,14.20
2019-05-22T23:21:35.671Z,14.10
2019-05-22T23:24:04.177Z,14.00
2019-05-22T23:26:34.387Z,14.00
2019-05-22T23:29:03.156Z,14.00
2019-05-22T23:31:33.195Z,13.90
2019-05-22T23:34:03.027Z,13.90
2019-05-22T23:36:33.151Z,13.90
2019-05-22T23:39:06.110Z,13.80
2019-05-22T23:41:36.955Z,13.80
2019-05-22T23:44:08.790Z,13.80
2019-05-22T23:46:38.234Z,13.70
2019-05-22T23:49:06.647Z,13.70
2019-05-22T23:51:35.308Z,13.60
2019-05-22T23:54:05.841Z,13.60
2019-05-22T23:56:36.447Z,13.60
2019-05-22T23:59:05.156Z,13.60
